ADDS METAR Data INFO
IDs: Format: Raw Decoded Include TAF

Data at: 0314 UTC 22 Apr 2018

KRKD 220256Z AUTO 27003KT 10SM FEW090 03/M04 A3026 RMK AO2 SLP248 T00281039 51015
KRKD 220156Z AUTO 31003KT 10SM OVC085 08/M06 A3025 RMK AO2 SLP246 T00781056
KRKD 220056Z AUTO 32004KT 10SM BKN085 08/M06 A3024 RMK AO2 SLP241 T00831056
KRKD 212356Z AUTO VRB06KT 10SM OVC085 09/M06 A3021 RMK AO2 SLP233 T00941056 10117 20094 53024
KRKD 212256Z AUTO 31009KT 10SM OVC080 10/M06 A3018 RMK AO2 SLP221 T01001061
KRKD 212156Z AUTO VRB04KT 10SM BKN080 11/M05 A3016 RMK AO2 SLP215 T01061050
KRKD 212056Z AUTO 28013G18KT 10SM OVC075 11/M04 A3014 RMK AO2 SLP210 T01111044 56009
KRKD 211956Z AUTO 30012G20KT 10SM BKN075 11/M04 A3014 RMK AO2 SLP210 T01111044
KRKD 211856Z AUTO 31009G15KT 280V350 10SM OVC075 10/M04 A3016 RMK AO2 SLP214 T01001044
KRKD 211756Z AUTO 31010G16KT 280V350 10SM BKN065 10/M04 A3017 RMK AO2 SLP219 T01001044 10106 20044 55007
KRKD 211656Z AUTO 28016G22KT 10SM OVC065 10/M03 A3017 RMK AO2 SLP218 T01001033
KRKD 211556Z AUTO 28013G16KT 10SM OVC055 08/M04 A3019 RMK AO2 SLP224 T00831039
KRKD 211456Z AUTO 32008G15KT 290V360 10SM OVC055 08/M04 A3019 RMK AO2 SLP226 T00781039 58006
KRKD 211356Z AUTO VRB05KT 10SM BKN048 OVC060 07/M03 A3020 RMK AO2 SLP229 T00721028
KRKD 211256Z AUTO 32007KT 290V360 10SM CLR 07/M02 A3021 RMK AO2 SLP230 T00671022
KRKD 211156Z AUTO 28007KT 10SM CLR 04/M02 A3021 RMK AO2 SLP233 T00441017 10050 20000 51012
KRKD 211056Z AUTO 00000KT 10SM CLR 01/M02 A3021 RMK AO2 SLP232 T00111022 FZRANO
KRKD 210956Z AUTO 27005KT 10SM FEW080 01/M03 A3020 RMK AO2 SLP228 T00061028 FZRANO
KRKD 210856Z AUTO 29005KT 10SM FEW090 02/M02 A3018 RMK AO2 SLP221 T00221022 53011 FZRANO
KRKD 210756Z AUTO 29005KT 10SM FEW080 OVC095 03/M02 A3016 RMK AO2 SLP216 T00281022
KRKD 210656Z AUTO VRB04KT 10SM FEW075 OVC095 04/M01 A3015 RMK AO2 SLP211 T00441011
KRKD 210556Z AUTO 31005KT 10SM BKN060 OVC100 05/M01 A3014 RMK AO2 SLP210 T00501006 10067 20044 50006
KRKD 210456Z AUTO 31005KT 10SM SCT070 BKN100 04/00 A3015 RMK AO2 SLP211 T00440000 401060017
KRKD 210356Z AUTO 30009G15KT 10SM FEW075 OVC095 05/01 A3014 RMK AO2 SLP208 T00500006
KRKD 210256Z AUTO 29010KT 10SM OVC090 05/01 A3013 RMK AO2 SLP204 T00500006 51019
KRKD 210156Z AUTO 29008KT 10SM OVC090 06/01 A3012 RMK AO2 SLP200 T00560011
KRKD 210056Z AUTO 29008KT 10SM SCT090 06/01 A3011 RMK AO2 SLP197 T00560006
KRKD 202356Z AUTO 29008G15KT 10SM FEW049 SCT080 07/01 A3007 RMK AO2 SLP185 60000 T00670006 10106 20067 53032
KRKD 202256Z AUTO 30004KT 10SM OVC090 08/M01 A3003 RMK AO2 RAB05E18 SLP171 P0000 T00781006
KRKD 202156Z AUTO 32009KT 300V010 10SM FEW049 BKN060 OVC075 09/M01 A3001 RMK AO2 SLP164 T00891011
KRKD 202056Z AUTO VRB05G17KT 10SM SCT060 OVC075 09/M02 A2998 RMK AO2 SLP153 T00941022 53020
KRKD 201956Z AUTO 32010G17KT 10SM OVC065 09/M02 A2995 RMK AO2 SLP144 T00941022
KRKD 201856Z AUTO 35008G17KT 310V030 10SM OVC055 09/M02 A2993 RMK AO2 SLP138 T00941017
KRKD 201756Z AUTO 33007KT 290V040 10SM SCT050 OVC060 09/M01 A2992 RMK AO2 SLP133 T00941006 10094 20028 53013
KRKD 201656Z AUTO 33009G15KT 10SM OVC043 08/00 A2990 RMK AO2 SLP128 T00830000
KRKD 201556Z AUTO 35010G15KT 320V040 10SM BKN034 OVC043 08/01 A2989 RMK AO2 SLP122 T00830006
KRKD 201523Z AUTO 31010G18KT 10SM BKN033 BKN070 07/01 A2988 RMK AO2